Time;durP1;ratioP1;P1;durP2;ratioP2;P2;SDS_P1;SDS_P2;PMS_P1;PMS_P2;Temp;Humidity;BMP_temperature;BMP_pressure;BME280_temperature;BME280_humidity;BME280_pressure;Samples;Min_cycle;Max_cycle;Signal;HPM_P1;HPM_P2
2022/09/05 00:00:05;;;;;;;3.53;3.00;;;;;;;;;;5016261;28;20465;-62
2022/09/05 00:02:37;;;;;;;3.35;3.08;;;;;;;;;;5016059;28;20069;-61
2022/09/05 00:05:05;;;;;;;3.40;3.17;;;;;;;;;;5016257;28;20053;-61
2022/09/05 00:07:30;;;;;;;3.83;3.53;;;;;;;;;;5016205;28;20032;-61
2022/09/05 00:09:59;;;;;;;3.90;3.35;;;;;;;;;;5016177;28;20026;-61
2022/09/05 00:12:25;;;;;;;3.50;3.30;;;;;;;;;;5015205;28;20409;-62
2022/09/05 00:15:01;;;;;;;4.32;3.53;;;;;;;;;;5016053;28;20041;-61
2022/09/05 00:17:29;;;;;;;3.63;3.28;;;;;;;;;;5015724;28;20470;-62
2022/09/05 00:22:43;;;;;;;3.38;3.15;;;;;;;;;;5091656;22;20110;-62
2022/09/05 00:25:20;;;;;;;3.38;3.17;;;;;;;;;;5075869;28;20441;-61
2022/09/05 00:28:05;;;;;;;3.25;3.05;;;;;;;;;;5075482;28;20040;-61
2022/09/05 00:30:34;;;;;;;3.45;3.00;;;;;;;;;;5075175;28;20392;-61
2022/09/05 00:33:03;;;;;;;3.40;3.10;;;;;;;;;;5075162;28;20060;-62
2022/09/05 00:35:36;;;;;;;4.05;3.65;;;;;;;;;;5075341;28;20079;-62
2022/09/05 00:38:12;;;;;;;3.83;3.33;;;;;;;;;;5075529;28;20037;-62
2022/09/05 00:40:43;;;;;;;3.47;3.28;;;;;;;;;;5075168;28;20040;-62
2022/09/05 00:43:08;;;;;;;;;;;;;;;;;;5040872;28;20095;-62
2022/09/05 00:45:36;;;;;;;3.17;2.97;;;;;;;;;;5056976;28;19912;-62
2022/09/05 00:48:25;;;;;;;4.07;3.72;;;;;;;;;;5074790;28;20020;-62
2022/09/05 00:51:09;;;;;;;3.55;3.35;;;;;;;;;;5056879;28;20036;-61
2022/09/05 00:53:48;;;;;;;4.75;3.25;;;;;;;;;;5075254;28;20107;-61
2022/09/05 00:56:29;;;;;;;4.10;3.25;;;;;;;;;;5074939;28;20379;-61
2022/09/05 00:59:02;;;;;;;3.50;3.30;;;;;;;;;;5075166;28;20457;-62
2022/09/05 01:01:30;;;;;;;3.28;3.10;;;;;;;;;;5074411;28;20468;-62
2022/09/05 01:04:02;;;;;;;5.28;3.30;;;;;;;;;;5074523;28;20020;-61
2022/09/05 01:06:48;;;;;;;3.40;3.10;;;;;;;;;;5074456;28;20032;-61
2022/09/05 01:09:28;;;;;;;3.50;3.30;;;;;;;;;;5016632;28;20120;-62
2022/09/05 01:12:12;;;;;;;3.42;3.13;;;;;;;;;;5075104;28;20028;-61
2022/09/05 01:14:56;;;;;;;3.28;3.08;;;;;;;;;;5057567;28;20040;-62
2022/09/05 01:17:27;;;;;;;3.70;3.28;;;;;;;;;;5073038;28;20032;-61
2022/09/05 01:19:56;;;;;;;3.83;3.40;;;;;;;;;;5074397;28;20369;-61
2022/09/05 01:22:47;;;;;;;3.72;3.35;;;;;;;;;;5074285;28;20033;-62
2022/09/05 01:25:31;;;;;;;3.35;3.10;;;;;;;;;;5025679;28;20044;-61
2022/09/05 01:28:01;;;;;;;3.38;3.17;;;;;;;;;;5074644;28;20448;-62
2022/09/05 01:30:46;;;;;;;3.42;3.13;;;;;;;;;;5074328;28;20020;-61
2022/09/05 01:33:30;;;;;;;3.08;2.88;;;;;;;;;;5073528;28;20119;-61
2022/09/05 01:36:02;;;;;;;3.13;2.92;;;;;;;;;;5074531;28;20040;-62
2022/09/05 01:38:39;;;;;;;3.80;3.38;;;;;;;;;;5073906;28;20480;-61
2022/09/05 01:41:12;;;;;;;4.30;3.05;;;;;;;;;;5055917;28;20036;-62
2022/09/05 01:43:43;;;;;;;2.95;2.75;;;;;;;;;;5074085;28;20036;-62
2022/09/05 01:46:20;;;;;;;3.55;3.20;;;;;;;;;;5074101;28;20461;-61
2022/09/05 01:48:51;;;;;;;3.70;3.20;;;;;;;;;;5074042;28;20028;-62
2022/09/05 01:51:16;;;;;;;;;;;;;;;;;;5074436;28;20038;-62
2022/09/05 01:53:46;;;;;;;3.27;3.07;;;;;;;;;;5073763;28;20002;-61
2022/09/05 01:56:25;;;;;;;5.00;3.25;;;;;;;;;;5056164;28;20032;-61
2022/09/05 01:59:00;;;;;;;3.33;3.13;;;;;;;;;;5073927;28;20064;-62
2022/09/05 02:01:40;;;;;;;3.13;2.92;;;;;;;;;;5055691;28;20058;-62
2022/09/05 02:04:12;;;;;;;3.58;3.28;;;;;;;;;;5074181;28;20071;-61
2022/09/05 02:06:46;;;;;;;4.22;3.80;;;;;;;;;;5073859;28;20494;-61
2022/09/05 02:09:34;;;;;;;3.75;3.55;;;;;;;;;;5073826;28;20028;-61
2022/09/05 02:12:23;;;;;;;3.88;3.42;;;;;;;;;;5073908;28;20368;-62
2022/09/05 02:14:58;;;;;;;4.50;3.80;;;;;;;;;;5035948;28;20036;-62
2022/09/05 02:17:35;;;;;;;3.58;3.38;;;;;;;;;;5073726;28;20033;-61
2022/09/05 02:20:06;;;;;;;3.85;3.60;;;;;;;;;;5055419;28;20028;-61
2022/09/05 02:22:40;;;;;;;4.00;3.80;;;;;;;;;;5073199;28;20041;-61
2022/09/05 02:25:14;;;;;;;4.25;3.85;;;;;;;;;;5073979;28;20476;-62
2022/09/05 02:27:44;;;;;;;3.35;3.15;;;;;;;;;;5073917;28;20464;-62
2022/09/05 02:30:15;;;;;;;3.47;3.28;;;;;;;;;;5073326;28;20036;-62
2022/09/05 02:32:40;;;;;;;3.58;3.28;;;;;;;;;;5073293;28;20384;-62
2022/09/05 02:35:12;;;;;;;3.72;3.45;;;;;;;;;;5057415;28;20024;-62
2022/09/05 02:37:41;;;;;;;3.22;3.00;;;;;;;;;;5077633;28;20028;-61
2022/09/05 02:40:27;;;;;;;4.00;3.00;;;;;;;;;;5077504;28;20043;-61
2022/09/05 02:43:11;;;;;;;3.70;3.40;;;;;;;;;;5077502;28;20029;-61
2022/09/05 02:45:40;;;;;;;3.65;3.35;;;;;;;;;;5077758;28;20102;-62
2022/09/05 02:48:17;;;;;;;3.70;3.40;;;;;;;;;;5077433;28;20027;-61
2022/09/05 02:50:52;;;;;;;3.67;3.47;;;;;;;;;;5077968;28;20032;-61
2022/09/05 02:53:18;;;;;;;3.38;3.13;;;;;;;;;;5059473;28;20028;-61
2022/09/05 02:55:52;;;;;;;3.53;3.33;;;;;;;;;;5059076;28;20023;-61
2022/09/05 02:58:28;;;;;;;3.88;3.47;;;;;;;;;;5077471;28;20508;-62
2022/09/05 03:01:01;;;;;;;3.47;3.28;;;;;;;;;;5076846;28;20032;-61
2022/09/05 03:03:27;;;;;;;4.22;3.83;;;;;;;;;;5059133;28;20033;-65
2022/09/05 03:05:55;;;;;;;4.13;3.72;;;;;;;;;;5076736;28;20375;-66
2022/09/05 03:08:39;;;;;;;3.70;3.30;;;;;;;;;;5077324;28;20104;-66
2022/09/05 03:11:10;;;;;;;3.83;3.60;;;;;;;;;;5077004;28;20107;-66
2022/09/05 03:13:55;;;;;;;4.05;3.75;;;;;;;;;;5076673;28;20075;-66
2022/09/05 03:16:23;;;;;;;4.50;4.10;;;;;;;;;;5076896;28;20081;-66
2022/09/05 03:18:51;;;;;;;4.15;3.85;;;;;;;;;;5076814;28;20016;-66
2022/09/05 03:21:20;;;;;;;4.32;3.97;;;;;;;;;;5076390;28;20032;-66
2022/09/05 03:24:04;;;;;;;4.63;4.07;;;;;;;;;;5077032;28;20028;-66
2022/09/05 03:26:32;;;;;;;5.30;4.00;;;;;;;;;;5076957;28;20060;-66
2022/09/05 03:29:03;;;;;;;4.22;3.85;;;;;;;;;;5076644;28;20046;-66
2022/09/05 03:31:41;;;;;;;4.60;4.03;;;;;;;;;;5076591;28;20033;-66
2022/09/05 03:34:16;;;;;;;4.38;3.97;;;;;;;;;;5076562;28;20412;-66
2022/09/05 03:36:41;;;;;;;4.38;3.78;;;;;;;;;;5058314;28;20044;-66
2022/09/05 03:39:06;;;;;;;4.38;3.50;;;;;;;;;;5076216;28;20411;-66
2022/09/05 03:41:53;;;;;;;3.40;3.10;;;;;;;;;;5076352;28;20111;-66
2022/09/05 03:44:36;;;;;;;6.13;3.45;;;;;;;;;;5076390;28;20431;-66
2022/09/05 03:47:15;;;;;;;3.38;3.17;;;;;;;;;;5075251;28;20029;-66
2022/09/05 03:49:59;;;;;;;3.40;3.10;;;;;;;;;;5076291;28;20027;-66
2022/09/05 03:52:34;;;;;;;4.03;3.30;;;;;;;;;;5076213;28;20032;-66
2022/09/05 03:55:02;;;;;;;3.20;3.00;;;;;;;;;;5058007;28;20127;-66
2022/09/05 03:57:46;;;;;;;3.83;3.35;;;;;;;;;;5076057;28;20535;-66
2022/09/05 04:00:21;;;;;;;3.20;3.00;;;;;;;;;;5075965;28;20025;-66
2022/09/05 04:02:56;;;;;;;3.13;2.92;;;;;;;;;;5076585;28;20029;-66
2022/09/05 04:05:26;;;;;;;3.30;3.10;;;;;;;;;;5078036;28;20029;-66
2022/09/05 04:07:52;;;;;;;;;;;;;;;;;;5078532;28;20116;-66
2022/09/05 04:10:31;;;;;;;3.97;3.67;;;;;;;;;;5075897;28;19989;-66
2022/09/05 04:13:07;;;;;;;5.57;4.50;;;;;;;;;;5075879;28;20267;-66
2022/09/05 04:15:38;;;;;;;7.70;4.80;;;;;;;;;;5075773;28;20115;-66
2022/09/05 04:18:16;;;;;;;10.05;5.05;;;;;;;;;;5057516;28;20036;-66
2022/09/05 04:20:46;;;;;;;6.30;5.50;;;;;;;;;;5075581;28;20043;-66
2022/09/05 04:23:18;;;;;;;7.20;5.60;;;;;;;;;;5075263;28;20064;-66
2022/09/05 04:26:02;;;;;;;6.82;5.68;;;;;;;;;;5057761;28;20025;-66
2022/09/05 04:28:33;;;;;;;5.97;5.20;;;;;;;;;;5075821;28;20115;-66
2022/09/05 04:31:02;;;;;;;7.82;5.78;;;;;;;;;;5075497;28;20442;-66
2022/09/05 04:33:41;;;;;;;7.57;5.85;;;;;;;;;;5075397;28;20029;-66
2022/09/05 04:36:19;;;;;;;6.47;5.85;;;;;;;;;;5075082;28;20082;-66
2022/09/05 04:38:44;;;;;;;10.95;6.40;;;;;;;;;;5075328;28;20024;-66
2022/09/05 04:41:13;;;;;;;7.80;6.55;;;;;;;;;;5074960;28;20530;-66
2022/09/05 04:43:46;;;;;;;8.25;6.28;;;;;;;;;;5075233;28;20028;-66
2022/09/05 04:46:17;;;;;;;8.95;6.57;;;;;;;;;;5073618;28;20032;-66
2022/09/05 04:48:47;;;;;;;6.30;5.70;;;;;;;;;;5057072;28;20365;-66
2022/09/05 04:51:22;;;;;;;8.95;6.18;;;;;;;;;;5074814;28;20067;-66
2022/09/05 04:54:06;;;;;;;7.60;5.57;;;;;;;;;;5075019;28;20039;-66
2022/09/05 04:56:35;;;;;;;7.22;5.55;;;;;;;;;;5074797;28;20043;-66
2022/09/05 04:59:07;;;;;;;7.75;5.70;;;;;;;;;;5074492;28;20052;-66
2022/09/05 05:01:42;;;;;;;7.45;6.00;;;;;;;;;;5057296;28;20040;-66
2022/09/05 05:04:13;;;;;;;6.10;5.50;;;;;;;;;;5074740;28;20091;-66
2022/09/05 05:06:44;;;;;;;6.82;5.97;;;;;;;;;;5074468;28;20029;-66
2022/09/05 05:09:23;;;;;;;6.05;5.40;;;;;;;;;;5057340;28;20040;-66
2022/09/05 05:12:17;;;;;;;9.55;6.00;;;;;;;;;;5074326;28;20048;-66
2022/09/05 05:14:42;;;;;;;6.95;5.50;;;;;;;;;;5070475;28;20068;-66
2022/09/05 05:17:26;;;;;;;6.20;4.68;;;;;;;;;;5074284;28;20109;-66
2022/09/05 05:19:58;;;;;;;4.88;4.35;;;;;;;;;;5074436;28;20028;-66
2022/09/05 05:22:24;;;;;;;4.72;4.40;;;;;;;;;;5074177;28;20036;-66
2022/09/05 05:24:51;;;;;;;5.28;4.07;;;;;;;;;;5074446;28;20119;-66
2022/09/05 05:27:26;;;;;;;5.57;4.22;;;;;;;;;;5074112;28;20028;-66
2022/09/05 05:29:52;;;;;;;5.47;4.80;;;;;;;;;;5074091;28;20021;-66
2022/09/05 05:32:20;;;;;;;7.00;4.90;;;;;;;;;;5074290;28;20524;-66
2022/09/05 05:34:47;;;;;;;6.25;4.80;;;;;;;;;;5073978;28;20025;-65
2022/09/05 05:37:15;;;;;;;7.25;5.18;;;;;;;;;;5074254;28;20032;-66
2022/09/05 05:39:47;;;;;;;7.35;4.78;;;;;;;;;;5056680;28;20025;-65
2022/09/05 05:42:15;;;;;;;5.80;4.90;;;;;;;;;;5074112;28;20039;-66
2022/09/05 05:44:47;;;;;;;5.53;5.00;;;;;;;;;;5055998;28;20025;-66
2022/09/05 05:47:18;;;;;;;9.00;4.65;;;;;;;;;;5074345;28;20078;-66
2022/09/05 05:49:48;;;;;;;5.60;5.05;;;;;;;;;;5074341;28;20423;-65
2022/09/05 05:52:33;;;;;;;5.63;5.00;;;;;;;;;;5073779;28;20024;-65
2022/09/05 05:55:28;;;;;;;6.53;5.30;;;;;;;;;;5055770;28;20028;-66
2022/09/05 05:58:03;;;;;;;5.85;5.20;;;;;;;;;;5073931;28;20024;-66
2022/09/05 06:00:41;;;;;;;5.47;5.07;;;;;;;;;;5073851;28;20388;-66
2022/09/05 06:03:25;;;;;;;5.80;5.30;;;;;;;;;;5072677;28;20535;-66
2022/09/05 06:05:58;;;;;;;7.30;5.20;;;;;;;;;;5073853;28;20023;-66
2022/09/05 06:08:35;;;;;;;8.93;5.38;;;;;;;;;;5055601;28;20127;-66
2022/09/05 06:11:01;;;;;;;5.10;4.68;;;;;;;;;;5072954;28;20080;-66
2022/09/05 06:13:39;;;;;;;5.65;5.03;;;;;;;;;;5074107;28;20036;-65
2022/09/05 06:16:07;;;;;;;6.75;4.63;;;;;;;;;;5074033;28;20094;-66
2022/09/05 06:18:38;;;;;;;5.40;4.90;;;;;;;;;;5074017;28;20022;-65
2022/09/05 06:21:40;;;;;;;6.95;5.15;;;;;;;;;;5073623;28;20531;-65
2022/09/05 06:24:17;;;;;;;5.55;5.05;;;;;;;;;;4975750;28;20487;-65
2022/09/05 06:27:10;;;;;;;7.28;4.43;;;;;;;;;;5063719;28;20390;-65
2022/09/05 06:29:35;;;;;;;4.90;4.50;;;;;;;;;;5072083;28;20484;-65
2022/09/05 06:32:07;;;;;;;5.55;4.55;;;;;;;;;;5073621;28;20028;-65
2022/09/05 06:34:44;;;;;;;6.40;4.35;;;;;;;;;;5073316;28;20365;-65
2022/09/05 06:37:29;;;;;;;7.85;4.75;;;;;;;;;;5073564;28;20055;-66
2022/09/05 06:40:13;;;;;;;5.57;5.07;;;;;;;;;;5073842;28;20033;-65
2022/09/05 06:42:41;;;;;;;5.32;4.85;;;;;;;;;;5071962;28;20444;-65
2022/09/05 06:45:12;;;;;;;5.80;4.65;;;;;;;;;;5073554;28;20028;-65
2022/09/05 06:47:40;;;;;;;5.22;4.82;;;;;;;;;;5073516;28;20031;-65
2022/09/05 06:50:20;;;;;;;7.03;5.50;;;;;;;;;;5055264;28;20476;-65
2022/09/05 06:53:03;;;;;;;5.63;5.07;;;;;;;;;;5073440;28;20111;-65
2022/09/05 06:55:29;;;;;;;6.65;5.53;;;;;;;;;;5073474;28;20028;-65
2022/09/05 06:57:57;;;;;;;6.57;5.38;;;;;;;;;;5074069;28;20090;-66
2022/09/05 07:00:46;;;;;;;6.85;5.10;;;;;;;;;;5057607;28;20044;-66
2022/09/05 07:03:31;;;;;;;5.95;5.35;;;;;;;;;;5062604;28;20037;-66
2022/09/05 07:06:06;;;;;;;5.90;5.13;;;;;;;;;;5073555;28;20032;-65
2022/09/05 07:08:43;;;;;;;5.28;4.53;;;;;;;;;;5072989;28;20025;-65
2022/09/05 07:11:12;;;;;;;6.45;5.38;;;;;;;;;;5054952;28;20538;-65
2022/09/05 07:13:58;;;;;;;5.68;5.10;;;;;;;;;;5054997;28;20353;-65
2022/09/05 07:16:30;;;;;;;5.47;4.97;;;;;;;;;;5072393;28;20040;-65
2022/09/05 07:18:58;;;;;;;7.60;4.72;;;;;;;;;;5073178;28;20380;-65
2022/09/05 07:21:31;;;;;;;5.32;4.45;;;;;;;;;;5056657;28;20016;-65
2022/09/05 07:24:00;;;;;;;9.32;4.50;;;;;;;;;;5076443;28;20438;-66
2022/09/05 07:26:26;;;;;;;4.22;3.92;;;;;;;;;;5077020;28;20028;-65
2022/09/05 07:28:55;;;;;;;5.00;4.30;;;;;;;;;;5076641;28;20357;-65
2022/09/05 07:31:23;;;;;;;4.55;4.15;;;;;;;;;;5076355;28;20028;-65
2022/09/05 07:33:50;;;;;;;5.50;4.38;;;;;;;;;;5058501;28;20034;-65
2022/09/05 07:36:19;;;;;;;4.70;4.30;;;;;;;;;;5076561;28;20020;-65
2022/09/05 07:38:49;;;;;;;4.55;4.15;;;;;;;;;;5058381;28;20115;-65
2022/09/05 07:41:20;;;;;;;4.38;3.88;;;;;;;;;;5076131;28;20058;-65
2022/09/05 07:43:48;;;;;;;4.50;3.92;;;;;;;;;;5076094;28;20035;-65
2022/09/05 07:46:19;;;;;;;4.63;4.20;;;;;;;;;;5076372;28;20059;-65
2022/09/05 07:48:50;;;;;;;4.10;3.80;;;;;;;;;;5076621;28;20031;-65
2022/09/05 07:51:36;;;;;;;4.85;3.63;;;;;;;;;;5074773;28;20056;-65
2022/09/05 07:54:19;;;;;;;4.28;3.92;;;;;;;;;;5075515;28;20041;-65
2022/09/05 07:56:47;;;;;;;5.60;3.90;;;;;;;;;;5057950;28;20468;-65
2022/09/05 07:59:13;;;;;;;3.67;3.22;;;;;;;;;;5076135;28;20024;-65
2022/09/05 08:01:41;;;;;;;3.88;3.53;;;;;;;;;;5075711;28;20024;-65
2022/09/05 08:04:07;;;;;;;3.97;3.53;;;;;;;;;;5075792;28;20074;-65
2022/09/05 08:06:33;;;;;;;3.85;3.55;;;;;;;;;;5075719;28;20032;-65
2022/09/05 08:09:12;;;;;;;3.30;3.10;;;;;;;;;;5075642;28;20028;-65
2022/09/05 08:11:39;;;;;;;4.07;3.17;;;;;;;;;;5075625;28;20431;-65
2022/09/05 08:14:12;;;;;;;4.30;3.53;;;;;;;;;;5058020;28;20021;-65
2022/09/05 08:16:38;;;;;;;4.32;3.10;;;;;;;;;;5076043;28;20043;-65
2022/09/05 08:19:03;;;;;;;4.00;3.45;;;;;;;;;;5076053;28;20024;-65
2022/09/05 08:21:47;;;;;;;5.10;3.25;;;;;;;;;;5074916;28;20064;-65
2022/09/05 08:24:35;;;;;;;3.75;3.30;;;;;;;;;;5075941;28;20448;-65
2022/09/05 08:27:08;;;;;;;4.68;3.30;;;;;;;;;;5075461;28;20111;-65
2022/09/05 08:29:39;;;;;;;3.58;3.05;;;;;;;;;;5075832;28;20036;-65
2022/09/05 08:32:12;;;;;;;5.10;3.40;;;;;;;;;;5094195;22;20028;-62
2022/09/05 08:34:53;;;;;;;3.60;3.30;;;;;;;;;;5032805;28;20048;-65
2022/09/05 08:37:20;;;;;;;3.55;3.25;;;;;;;;;;5034777;28;20029;-65
2022/09/05 08:39:47;;;;;;;3.97;3.58;;;;;;;;;;5034485;28;20021;-65
2022/09/05 08:42:24;;;;;;;3.58;3.33;;;;;;;;;;5034087;28;20444;-65
2022/09/05 08:45:09;;;;;;;4.57;3.90;;;;;;;;;;5016790;28;20029;-65
2022/09/05 08:47:43;;;;;;;4.22;3.50;;;;;;;;;;5034330;28;20030;-65
2022/09/05 08:50:18;;;;;;;12.77;3.63;;;;;;;;;;5034305;28;20025;-65
2022/09/05 08:52:46;;;;;;;3.55;3.25;;;;;;;;;;5034283;28;20064;-65
2022/09/05 08:55:14;;;;;;;4.55;3.35;;;;;;;;;;5033944;28;20025;-65
2022/09/05 08:57:58;;;;;;;4.28;3.25;;;;;;;;;;5034469;28;20075;-65
2022/09/05 09:00:25;;;;;;;5.60;3.40;;;;;;;;;;5032518;28;20503;-65
2022/09/05 09:03:00;;;;;;;4.20;3.15;;;;;;;;;;5016658;28;20026;-65
2022/09/05 09:05:45;;;;;;;3.45;3.10;;;;;;;;;;5034356;28;20026;-65
2022/09/05 09:08:18;;;;;;;4.70;3.50;;;;;;;;;;5034034;28;20092;-65
2022/09/05 09:10:47;;;;;;;3.90;3.22;;;;;;;;;;5033744;28;20130;-65
2022/09/05 09:13:31;;;;;;;4.00;3.00;;;;;;;;;;5033687;28;20021;-65
2022/09/05 09:16:26;;;;;;;3.15;2.72;;;;;;;;;;5034176;28;20037;-65
2022/09/05 09:18:52;;;;;;;4.45;3.03;;;;;;;;;;5017099;28;20045;-65
2022/09/05 09:21:32;;;;;;;4.07;3.25;;;;;;;;;;5035508;28;20021;-65
2022/09/05 09:23:57;;;;;;;4.32;2.92;;;;;;;;;;5035668;28;20076;-65
2022/09/05 09:26:28;;;;;;;3.47;3.10;;;;;;;;;;5033751;28;20018;-65
2022/09/05 09:29:07;;;;;;;4.47;3.20;;;;;;;;;;5033728;28;20025;-65
2022/09/05 09:31:50;;;;;;;3.28;3.08;;;;;;;;;;5033380;28;20103;-65
2022/09/05 09:34:22;;;;;;;3.63;3.33;;;;;;;;;;4985243;28;1408412;-65
2022/09/05 09:36:47;;;;;;;4.10;3.03;;;;;;;;;;5034655;28;20025;-65
2022/09/05 09:39:16;;;;;;;3.33;3.03;;;;;;;;;;5034060;28;20441;-65
2022/09/05 09:41:50;;;;;;;2.75;2.55;;;;;;;;;;5033927;28;20033;-65
2022/09/05 09:44:34;;;;;;;3.88;3.10;;;;;;;;;;5033199;28;20029;-65
2022/09/05 09:47:02;;;;;;;3.38;3.08;;;;;;;;;;5034271;28;20437;-65
2022/09/05 09:49:44;;;;;;;4.88;3.10;;;;;;;;;;5033895;28;20021;-65
2022/09/05 09:52:12;;;;;;;3.42;3.10;;;;;;;;;;5034097;28;20033;-65
2022/09/05 09:54:53;;;;;;;4.28;3.25;;;;;;;;;;5034154;28;20025;-65
2022/09/05 09:57:18;;;;;;;;;;;;;;;;;;5034478;28;20120;-65
2022/09/05 09:59:43;;;;;;;3.47;3.17;;;;;;;;;;5033780;28;19944;-65
2022/09/05 10:02:19;;;;;;;4.55;3.33;;;;;;;;;;5033904;28;20037;-65
2022/09/05 10:04:59;;;;;;;4.65;3.45;;;;;;;;;;5033658;28;20040;-65
2022/09/05 10:07:28;;;;;;;3.25;2.80;;;;;;;;;;5033973;28;20433;-65
2022/09/05 10:10:11;;;;;;;7.38;2.90;;;;;;;;;;5033883;28;20465;-65
2022/09/05 10:13:00;;;;;;;3.97;2.80;;;;;;;;;;5033586;28;20116;-65
2022/09/05 10:15:28;;;;;;;3.07;2.87;;;;;;;;;;5034173;28;20095;-65
2022/09/05 10:18:12;;;;;;;2.78;2.42;;;;;;;;;;5033809;28;20240;-65
2022/09/05 10:20:48;;;;;;;3.55;3.20;;;;;;;;;;5033988;28;20051;-65
2022/09/05 10:23:25;;;;;;;4.72;3.53;;;;;;;;;;5033755;28;20053;-65
2022/09/05 10:25:57;;;;;;;4.32;3.05;;;;;;;;;;5033704;28;20029;-65
2022/09/05 10:28:36;;;;;;;3.47;2.97;;;;;;;;;;5033489;28;20381;-61
2022/09/05 10:31:01;;;;;;;3.42;2.58;;;;;;;;;;5033403;28;20065;-62
2022/09/05 10:33:56;;;;;;;2.60;2.40;;;;;;;;;;5033513;28;20084;-61
2022/09/05 10:36:23;;;;;;;2.75;2.55;;;;;;;;;;4963537;28;20051;-61
2022/09/05 10:38:52;;;;;;;3.47;2.97;;;;;;;;;;5033900;28;20030;-62
2022/09/05 10:41:23;;;;;;;2.92;2.72;;;;;;;;;;5015593;28;20036;-61
2022/09/05 10:44:01;;;;;;;3.83;2.65;;;;;;;;;;5033303;28;20030;-61
2022/09/05 10:46:29;;;;;;;3.60;3.40;;;;;;;;;;5032423;28;20108;-61
2022/09/05 10:48:57;;;;;;;3.83;3.17;;;;;;;;;;5016201;28;20377;-61
2022/09/05 10:51:42;;;;;;;3.78;3.20;;;;;;;;;;5033189;28;20096;-62
2022/09/05 10:54:13;;;;;;;3.92;3.20;;;;;;;;;;5033499;28;20488;-61
2022/09/05 10:56:42;;;;;;;4.93;3.60;;;;;;;;;;5035680;28;20029;-61
2022/09/05 10:59:27;;;;;;;5.55;3.45;;;;;;;;;;5037356;28;20021;-61
2022/09/05 11:02:05;;;;;;;5.40;3.55;;;;;;;;;;5036556;28;20044;-61
2022/09/05 11:04:34;;;;;;;4.13;3.67;;;;;;;;;;5037481;28;20048;-62
2022/09/05 11:07:06;;;;;;;5.05;3.28;;;;;;;;;;5036892;28;20457;-61
2022/09/05 11:09:40;;;;;;;4.78;3.30;;;;;;;;;;5019085;28;20032;-62
2022/09/05 11:12:09;;;;;;;3.45;3.15;;;;;;;;;;5037370;28;20568;-61
2022/09/05 11:14:40;;;;;;;4.50;3.45;;;;;;;;;;5002630;28;20112;-61
2022/09/05 11:17:21;;;;;;;3.40;3.10;;;;;;;;;;5037228;28;20025;-62
2022/09/05 11:20:00;;;;;;;4.00;3.15;;;;;;;;;;5037240;28;20173;-61
2022/09/05 11:22:27;;;;;;;5.57;3.17;;;;;;;;;;5036803;28;20428;-61
2022/09/05 11:24:58;;;;;;;3.33;3.13;;;;;;;;;;5018840;28;20472;-62
2022/09/05 11:27:23;;;;;;;;;;;;;;;;;;5037232;28;20040;-61
2022/09/05 11:29:50;;;;;;;3.73;3.03;;;;;;;;;;5018782;28;19905;-61
2022/09/05 11:32:16;;;;;;;6.18;3.40;;;;;;;;;;5036533;28;20264;-61
2022/09/05 11:34:44;;;;;;;3.42;3.13;;;;;;;;;;5036961;28;20117;-61
2022/09/05 11:37:23;;;;;;;8.90;3.53;;;;;;;;;;5036607;28;20167;-61
2022/09/05 11:39:49;;;;;;;3.35;3.00;;;;;;;;;;5036294;28;20033;-62
2022/09/05 11:42:23;;;;;;;3.53;2.83;;;;;;;;;;5036752;28;20029;-61
2022/09/05 11:44:56;;;;;;;3.20;3.00;;;;;;;;;;5018482;28;20493;-61
2022/09/05 11:47:31;;;;;;;3.55;3.25;;;;;;;;;;5036398;28;20037;-61
2022/09/05 11:49:56;;;;;;;4.82;3.05;;;;;;;;;;5036650;28;20045;-61
2022/09/05 11:52:42;;;;;;;3.25;2.90;;;;;;;;;;5036068;28;20469;-61
2022/09/05 11:55:07;;;;;;;4.72;3.13;;;;;;;;;;4997618;28;20490;-61
2022/09/05 11:57:33;;;;;;;3.38;2.97;;;;;;;;;;5038611;28;20052;-61
2022/09/05 12:00:06;;;;;;;4.47;4.10;;;;;;;;;;5036211;28;20030;-61
2022/09/05 12:02:54;;;;;;;4.53;3.30;;;;;;;;;;5018494;28;20029;-61
2022/09/05 12:05:19;;;;;;;3.60;3.30;;;;;;;;;;5018393;28;20378;-61
2022/09/05 12:08:06;;;;;;;3.20;2.90;;;;;;;;;;5035166;28;20022;-61
2022/09/05 12:10:33;;;;;;;3.30;3.05;;;;;;;;;;5035709;28;20083;-61
2022/09/05 12:12:59;;;;;;;3.33;3.03;;;;;;;;;;5036015;28;20025;-61
2022/09/05 12:15:26;;;;;;;3.10;2.90;;;;;;;;;;5036191;28;20040;-61
2022/09/05 12:17:59;;;;;;;3.00;2.70;;;;;;;;;;5035582;28;20057;-61
2022/09/05 12:20:34;;;;;;;4.22;3.17;;;;;;;;;;5035746;28;20029;-62
2022/09/05 12:23:06;;;;;;;4.43;2.90;;;;;;;;;;5017804;28;20026;-61
2022/09/05 12:25:32;;;;;;;3.22;3.03;;;;;;;;;;5017742;28;20017;-62
2022/09/05 12:28:01;;;;;;;3.05;2.85;;;;;;;;;;5035461;28;20484;-61
2022/09/05 12:30:28;;;;;;;3.50;2.72;;;;;;;;;;5035407;28;20034;-62
2022/09/05 12:32:56;;;;;;;3.15;2.95;;;;;;;;;;5035191;28;20497;-61
2022/09/05 12:35:45;;;;;;;3.65;3.17;;;;;;;;;;5035269;28;20021;-61
2022/09/05 12:38:30;;;;;;;6.45;3.22;;;;;;;;;;4998410;28;20033;-61
2022/09/05 12:41:02;;;;;;;3.38;3.17;;;;;;;;;;5035634;28;20040;-62
2022/09/05 12:43:27;;;;;;;4.20;3.20;;;;;;;;;;5035386;28;20075;-61
2022/09/05 12:46:06;;;;;;;3.42;3.10;;;;;;;;;;5035032;28;20376;-61
2022/09/05 12:48:39;;;;;;;4.80;3.05;;;;;;;;;;5034905;28;20034;-61
2022/09/05 12:51:07;;;;;;;4.28;3.35;;;;;;;;;;5035256;28;20045;-61
2022/09/05 12:53:46;;;;;;;6.55;4.55;;;;;;;;;;5035219;28;20029;-61
2022/09/05 12:56:20;;;;;;;9.93;6.10;;;;;;;;;;5035116;28;20048;-62
2022/09/05 12:58:48;;;;;;;3.17;2.88;;;;;;;;;;5035115;28;20057;-62
2022/09/05 13:01:16;;;;;;;3.17;2.97;;;;;;;;;;5034682;28;20083;-62
2022/09/05 13:03:50;;;;;;;5.95;4.97;;;;;;;;;;5034989;28;20370;-61
2022/09/05 13:06:24;;;;;;;6.10;3.00;;;;;;;;;;5035263;28;20056;-61
2022/09/05 13:08:56;;;;;;;4.07;3.75;;;;;;;;;;5017048;28;20056;-61
2022/09/05 13:11:22;;;;;;;7.82;3.00;;;;;;;;;;5035093;28;20034;-61
2022/09/05 13:13:52;;;;;;;15.60;4.85;;;;;;;;;;5034480;28;20489;-61
2022/09/05 13:16:21;;;;;;;3.97;3.50;;;;;;;;;;5033238;28;20091;-61
2022/09/05 13:18:47;;;;;;;2.83;2.63;;;;;;;;;;5034636;28;20032;-62
2022/09/05 13:21:24;;;;;;;3.28;2.78;;;;;;;;;;5016556;28;20029;-61
2022/09/05 13:23:50;;;;;;;4.57;2.50;;;;;;;;;;5034343;28;20492;-61
2022/09/05 13:26:16;;;;;;;3.20;2.90;;;;;;;;;;5034851;28;20017;-61
2022/09/05 13:28:52;;;;;;;2.65;2.53;;;;;;;;;;5034273;28;20022;-61
2022/09/05 13:31:36;;;;;;;2.72;2.42;;;;;;;;;;5034242;28;20087;-62
2022/09/05 13:34:10;;;;;;;2.80;2.60;;;;;;;;;;5016473;28;20527;-62
2022/09/05 13:36:40;;;;;;;2.65;2.45;;;;;;;;;;5034402;28;20037;-61
2022/09/05 13:39:16;;;;;;;2.60;2.40;;;;;;;;;;5034634;28;20113;-61
2022/09/05 13:41:47;;;;;;;2.75;2.53;;;;;;;;;;5034010;28;20041;-61
2022/09/05 13:44:24;;;;;;;3.03;2.75;;;;;;;;;;5034545;28;20030;-61
2022/09/05 13:47:02;;;;;;;2.67;2.47;;;;;;;;;;5016685;28;20032;-61
2022/09/05 13:49:29;;;;;;;2.50;2.40;;;;;;;;;;5034211;28;20026;-62
2022/09/05 13:52:13;;;;;;;2.70;2.60;;;;;;;;;;5034455;28;20432;-61
2022/09/05 13:54:49;;;;;;;3.28;2.72;;;;;;;;;;5034381;28;20068;-61
2022/09/05 13:57:15;;;;;;;3.45;2.90;;;;;;;;;;5034084;28;20029;-61
2022/09/05 13:59:42;;;;;;;8.63;5.63;;;;;;;;;;5033795;28;20022;-61
2022/09/05 14:02:26;;;;;;;3.45;3.15;;;;;;;;;;5033979;28;20060;-62
2022/09/05 14:05:12;;;;;;;2.92;2.70;;;;;;;;;;5034291;28;20068;-62
2022/09/05 14:07:56;;;;;;;3.10;2.80;;;;;;;;;;5033970;28;20040;-62
2022/09/05 14:10:25;;;;;;;2.80;2.50;;;;;;;;;;5016594;28;20446;-62
2022/09/05 14:12:56;;;;;;;2.88;2.40;;;;;;;;;;5016297;28;20472;-62
2022/09/05 14:15:24;;;;;;;3.33;2.53;;;;;;;;;;5033582;28;20018;-61
2022/09/05 14:17:53;;;;;;;4.05;3.85;;;;;;;;;;5034156;28;20032;-62
2022/09/05 14:23:07;;;;;;;4.38;3.97;;;;;;;;;;5033495;28;20030;-61
2022/09/05 14:25:38;;;;;;;3.72;3.42;;;;;;;;;;5034110;28;20052;-61
2022/09/05 14:28:05;;;;;;;3.10;2.90;;;;;;;;;;5033484;28;20030;-61
2022/09/05 14:30:36;;;;;;;3.33;3.03;;;;;;;;;;5034170;28;20474;-62
2022/09/05 14:33:02;;;;;;;3.33;2.95;;;;;;;;;;5037549;28;20183;-62
2022/09/05 14:35:35;;;;;;;3.20;3.00;;;;;;;;;;5037806;28;20509;-62
2022/09/05 14:38:00;;;;;;;3.15;2.78;;;;;;;;;;5036248;28;20026;-62
2022/09/05 14:40:45;;;;;;;3.10;2.88;;;;;;;;;;5037379;28;20014;-61
2022/09/05 14:43:17;;;;;;;4.03;2.80;;;;;;;;;;5019730;28;20033;-62
2022/09/05 14:45:44;;;;;;;3.40;3.17;;;;;;;;;;5070731;22;20061;-66
2022/09/05 14:48:09;;;;;;;4.03;3.50;;;;;;;;;;5057451;28;20025;-66
2022/09/05 14:50:53;;;;;;;3.25;3.05;;;;;;;;;;5057728;28;20040;-66
2022/09/05 14:53:20;;;;;;;4.20;2.70;;;;;;;;;;5039326;28;20156;-66
2022/09/05 14:55:56;;;;;;;3.17;2.92;;;;;;;;;;5057053;28;20033;-66
2022/09/05 14:58:23;;;;;;;3.97;3.20;;;;;;;;;;5057327;28;20029;-66
2022/09/05 15:00:53;;;;;;;5.05;2.88;;;;;;;;;;5039040;28;20491;-66
2022/09/05 15:03:19;;;;;;;6.82;3.38;;;;;;;;;;5057232;28;20033;-66
2022/09/05 15:05:46;;;;;;;5.45;4.28;;;;;;;;;;5057174;28;20021;-66
2022/09/05 15:08:18;;;;;;;33.83;20.17;;;;;;;;;;5057108;28;20056;-66
2022/09/05 15:10:45;;;;;;;7.53;5.65;;;;;;;;;;5057123;28;20108;-66
2022/09/05 15:13:10;;;;;;;7.75;5.07;;;;;;;;;;5056995;28;20368;-66
2022/09/05 15:15:37;;;;;;;3.55;3.25;;;;;;;;;;5056959;28;20111;-66
2022/09/05 15:18:21;;;;;;;5.13;3.33;;;;;;;;;;5056982;28;20067;-66
2022/09/05 15:20:53;;;;;;;6.10;3.97;;;;;;;;;;5056799;28;20025;-66
2022/09/05 15:23:19;;;;;;;7.47;5.07;;;;;;;;;;5056586;28;20043;-66
2022/09/05 15:25:46;;;;;;;4.90;4.40;;;;;;;;;;5056812;28;20457;-66